Anvle, Pennsylvania
Current Conditions -  °F | °C
As of 4:58 PM on Wednesday 22 Oct 2014 (Local Time) from KMUI Reporting Station
Overcast Overcast  
Wind Chill: 54°   Ceiling: 2200
Heat Index: 54°   Visibility: 10mi
Dew Point: 50°   Wind: 9mph
Humidity: 88%   Direction: 340°NNW
Pressure: 29.94"   Gusts: 23mph
Location:  40.43°N, 76.56°W
Report Text: KMUI 222058Z AUTO 34008G20KT 10SM OVC022 12/10 A2994 RMK AO2 PK WND 34026/12 SLP142 T01200100 57006 $
Loading
Personal Weather Stations






























Interactive Weather Map New forecast layout! Learn more

10-Day Weather Forecast

Advertisements
Track Severe Weather on mobile